sensor_id;sensor_type;location;lat;lon;timestamp;P1;durP1;ratioP1;P2;durP2;ratioP2
3953;SDS011;1991;48.682;9.030;2022-07-23T00:00:59;4.63;;;4.13;;
3953;SDS011;1991;48.682;9.030;2022-07-23T00:03:25;4.72;;;4.20;;
3953;SDS011;1991;48.682;9.030;2022-07-23T00:05:51;6.22;;;3.90;;
3953;SDS011;1991;48.682;9.030;2022-07-23T00:08:17;4.45;;;3.95;;
3953;SDS011;1991;48.682;9.030;2022-07-23T00:10:42;4.70;;;4.20;;
3953;SDS011;1991;48.682;9.030;2022-07-23T00:13:08;4.43;;;3.75;;
3953;SDS011;1991;48.682;9.030;2022-07-23T00:15:33;7.30;;;3.47;;
3953;SDS011;1991;48.682;9.030;2022-07-23T00:17:59;4.30;;;3.88;;
3953;SDS011;1991;48.682;9.030;2022-07-23T00:20:25;6.30;;;3.72;;
3953;SDS011;1991;48.682;9.030;2022-07-23T00:22:51;4.22;;;3.83;;
3953;SDS011;1991;48.682;9.030;2022-07-23T00:25:21;4.30;;;3.92;;
3953;SDS011;1991;48.682;9.030;2022-07-23T00:27:48;4.20;;;3.80;;
3953;SDS011;1991;48.682;9.030;2022-07-23T00:30:14;6.47;;;4.00;;
3953;SDS011;1991;48.682;9.030;2022-07-23T00:32:49;5.93;;;3.92;;
3953;SDS011;1991;48.682;9.030;2022-07-23T00:35:22;9.88;;;4.13;;
3953;SDS011;1991;48.682;9.030;2022-07-23T00:37:51;4.22;;;3.83;;
3953;SDS011;1991;48.682;9.030;2022-07-23T00:40:18;5.22;;;3.85;;
3953;SDS011;1991;48.682;9.030;2022-07-23T00:42:44;3.97;;;3.58;;
3953;SDS011;1991;48.682;9.030;2022-07-23T00:45:10;4.30;;;3.90;;
3953;SDS011;1991;48.682;9.030;2022-07-23T00:47:36;3.72;;;3.40;;
3953;SDS011;1991;48.682;9.030;2022-07-23T00:50:03;4.57;;;4.28;;
3953;SDS011;1991;48.682;9.030;2022-07-23T00:52:29;4.50;;;3.90;;
3953;SDS011;1991;48.682;9.030;2022-07-23T00:54:56;3.80;;;3.50;;
3953;SDS011;1991;48.682;9.030;2022-07-23T00:57:22;4.22;;;3.83;;
3953;SDS011;1991;48.682;9.030;2022-07-23T00:59:48;4.43;;;3.72;;
3953;SDS011;1991;48.682;9.030;2022-07-23T01:02:13;5.63;;;3.80;;
3953;SDS011;1991;48.682;9.030;2022-07-23T01:04:39;3.70;;;3.40;;
3953;SDS011;1991;48.682;9.030;2022-07-23T01:07:05;4.55;;;3.63;;
3953;SDS011;1991;48.682;9.030;2022-07-23T01:09:31;3.92;;;3.60;;
3953;SDS011;1991;48.682;9.030;2022-07-23T01:11:56;4.40;;;3.65;;
3953;SDS011;1991;48.682;9.030;2022-07-23T01:14:23;4.25;;;3.85;;
3953;SDS011;1991;48.682;9.030;2022-07-23T01:16:49;3.75;;;3.45;;
3953;SDS011;1991;48.682;9.030;2022-07-23T01:19:15;5.53;;;3.40;;
3953;SDS011;1991;48.682;9.030;2022-07-23T01:21:46;4.50;;;3.28;;
3953;SDS011;1991;48.682;9.030;2022-07-23T01:24:13;3.50;;;3.20;;
3953;SDS011;1991;48.682;9.030;2022-07-23T01:26:43;4.85;;;4.35;;
3953;SDS011;1991;48.682;9.030;2022-07-23T01:29:10;3.85;;;3.53;;
3953;SDS011;1991;48.682;9.030;2022-07-23T01:31:35;4.75;;;3.72;;
3953;SDS011;1991;48.682;9.030;2022-07-23T01:34:01;3.67;;;3.30;;
3953;SDS011;1991;48.682;9.030;2022-07-23T01:36:27;3.58;;;3.28;;
3953;SDS011;1991;48.682;9.030;2022-07-23T01:38:53;4.32;;;3.42;;
3953;SDS011;1991;48.682;9.030;2022-07-23T01:41:19;4.80;;;3.60;;
3953;SDS011;1991;48.682;9.030;2022-07-23T01:43:44;3.53;;;3.22;;
3953;SDS011;1991;48.682;9.030;2022-07-23T01:46:10;4.70;;;3.63;;
3953;SDS011;1991;48.682;9.030;2022-07-23T01:48:36;4.05;;;3.65;;
3953;SDS011;1991;48.682;9.030;2022-07-23T01:51:01;4.40;;;3.85;;
3953;SDS011;1991;48.682;9.030;2022-07-23T01:53:28;4.10;;;3.63;;
3953;SDS011;1991;48.682;9.030;2022-07-23T01:55:56;5.63;;;3.92;;
3953;SDS011;1991;48.682;9.030;2022-07-23T01:58:22;5.55;;;3.70;;
3953;SDS011;1991;48.682;9.030;2022-07-23T02:00:47;4.40;;;3.53;;
3953;SDS011;1991;48.682;9.030;2022-07-23T02:03:13;4.03;;;3.58;;
3953;SDS011;1991;48.682;9.030;2022-07-23T02:05:39;3.75;;;3.25;;
3953;SDS011;1991;48.682;9.030;2022-07-23T02:08:04;3.95;;;3.55;;
3953;SDS011;1991;48.682;9.030;2022-07-23T02:10:30;4.50;;;3.80;;
3953;SDS011;1991;48.682;9.030;2022-07-23T02:12:56;4.32;;;3.92;;
3953;SDS011;1991;48.682;9.030;2022-07-23T02:15:21;5.13;;;3.88;;
3953;SDS011;1991;48.682;9.030;2022-07-23T02:17:47;4.03;;;3.63;;
3953;SDS011;1991;48.682;9.030;2022-07-23T02:20:13;3.67;;;3.30;;
3953;SDS011;1991;48.682;9.030;2022-07-23T02:22:39;3.92;;;3.63;;
3953;SDS011;1991;48.682;9.030;2022-07-23T02:25:06;5.22;;;3.88;;
3953;SDS011;1991;48.682;9.030;2022-07-23T02:27:32;5.65;;;4.07;;
3953;SDS011;1991;48.682;9.030;2022-07-23T02:29:58;4.60;;;4.13;;
3953;SDS011;1991;48.682;9.030;2022-07-23T02:32:24;4.05;;;3.75;;
3953;SDS011;1991;48.682;9.030;2022-07-23T02:34:50;4.97;;;4.05;;
3953;SDS011;1991;48.682;9.030;2022-07-23T02:37:15;4.32;;;4.00;;
3953;SDS011;1991;48.682;9.030;2022-07-23T02:39:41;4.32;;;3.80;;
3953;SDS011;1991;48.682;9.030;2022-07-23T02:42:07;4.20;;;3.80;;
3953;SDS011;1991;48.682;9.030;2022-07-23T02:44:32;4.88;;;4.38;;
3953;SDS011;1991;48.682;9.030;2022-07-23T02:46:58;5.68;;;3.83;;
3953;SDS011;1991;48.682;9.030;2022-07-23T02:49:24;5.40;;;3.92;;
3953;SDS011;1991;48.682;9.030;2022-07-23T02:51:49;4.75;;;3.85;;
3953;SDS011;1991;48.682;9.030;2022-07-23T02:54:15;5.90;;;3.72;;
3953;SDS011;1991;48.682;9.030;2022-07-23T02:56:41;5.05;;;4.38;;
3953;SDS011;1991;48.682;9.030;2022-07-23T02:59:07;4.43;;;3.80;;
3953;SDS011;1991;48.682;9.030;2022-07-23T03:01:33;5.00;;;3.97;;
3953;SDS011;1991;48.682;9.030;2022-07-23T03:03:59;5.53;;;4.15;;
3953;SDS011;1991;48.682;9.030;2022-07-23T03:06:25;4.35;;;3.90;;
3953;SDS011;1991;48.682;9.030;2022-07-23T03:08:50;7.75;;;4.38;;
3953;SDS011;1991;48.682;9.030;2022-07-23T03:11:16;5.22;;;4.45;;
3953;SDS011;1991;48.682;9.030;2022-07-23T03:13:41;4.10;;;3.70;;
3953;SDS011;1991;48.682;9.030;2022-07-23T03:16:07;5.82;;;3.85;;
3953;SDS011;1991;48.682;9.030;2022-07-23T03:18:33;5.47;;;4.22;;
3953;SDS011;1991;48.682;9.030;2022-07-23T03:20:59;4.88;;;4.40;;
3953;SDS011;1991;48.682;9.030;2022-07-23T03:23:25;4.22;;;3.90;;
3953;SDS011;1991;48.682;9.030;2022-07-23T03:25:51;4.82;;;4.32;;
3953;SDS011;1991;48.682;9.030;2022-07-23T03:28:17;4.07;;;3.78;;
3953;SDS011;1991;48.682;9.030;2022-07-23T03:30:44;4.20;;;3.80;;
3953;SDS011;1991;48.682;9.030;2022-07-23T03:33:11;6.95;;;4.15;;
3953;SDS011;1991;48.682;9.030;2022-07-23T03:35:38;5.05;;;4.55;;
3953;SDS011;1991;48.682;9.030;2022-07-23T03:38:03;6.30;;;4.60;;
3953;SDS011;1991;48.682;9.030;2022-07-23T03:40:29;4.85;;;4.30;;
3953;SDS011;1991;48.682;9.030;2022-07-23T03:42:54;5.20;;;4.38;;
3953;SDS011;1991;48.682;9.030;2022-07-23T03:45:20;4.97;;;4.40;;
3953;SDS011;1991;48.682;9.030;2022-07-23T03:47:46;6.43;;;4.18;;
3953;SDS011;1991;48.682;9.030;2022-07-23T03:50:11;4.30;;;4.00;;
3953;SDS011;1991;48.682;9.030;2022-07-23T03:52:37;4.55;;;4.22;;
3953;SDS011;1991;48.682;9.030;2022-07-23T03:55:03;5.15;;;4.28;;
3953;SDS011;1991;48.682;9.030;2022-07-23T03:57:29;4.90;;;4.15;;
3953;SDS011;1991;48.682;9.030;2022-07-23T03:59:55;5.03;;;4.55;;
3953;SDS011;1991;48.682;9.030;2022-07-23T04:02:21;5.03;;;4.40;;
3953;SDS011;1991;48.682;9.030;2022-07-23T04:04:46;6.47;;;4.38;;
3953;SDS011;1991;48.682;9.030;2022-07-23T04:07:12;5.25;;;3.90;;
3953;SDS011;1991;48.682;9.030;2022-07-23T04:09:39;4.30;;;3.78;;
3953;SDS011;1991;48.682;9.030;2022-07-23T04:12:05;5.18;;;4.30;;
3953;SDS011;1991;48.682;9.030;2022-07-23T04:14:32;4.78;;;4.38;;
3953;SDS011;1991;48.682;9.030;2022-07-23T04:16:58;5.30;;;4.40;;
3953;SDS011;1991;48.682;9.030;2022-07-23T04:19:24;4.43;;;4.03;;
3953;SDS011;1991;48.682;9.030;2022-07-23T04:21:50;4.60;;;4.20;;
3953;SDS011;1991;48.682;9.030;2022-07-23T04:24:16;4.63;;;4.22;;
3953;SDS011;1991;48.682;9.030;2022-07-23T04:26:42;4.72;;;4.18;;
3953;SDS011;1991;48.682;9.030;2022-07-23T04:29:08;5.90;;;4.35;;
3953;SDS011;1991;48.682;9.030;2022-07-23T04:31:34;6.47;;;4.72;;
3953;SDS011;1991;48.682;9.030;2022-07-23T04:33:59;5.72;;;4.40;;
3953;SDS011;1991;48.682;9.030;2022-07-23T04:36:25;4.22;;;3.85;;
3953;SDS011;1991;48.682;9.030;2022-07-23T04:38:50;5.90;;;4.55;;
3953;SDS011;1991;48.682;9.030;2022-07-23T04:41:16;5.88;;;4.40;;
3953;SDS011;1991;48.682;9.030;2022-07-23T04:43:41;5.90;;;4.50;;
3953;SDS011;1991;48.682;9.030;2022-07-23T04:46:07;5.22;;;4.72;;
3953;SDS011;1991;48.682;9.030;2022-07-23T04:48:33;6.53;;;4.40;;
3953;SDS011;1991;48.682;9.030;2022-07-23T04:50:58;4.82;;;4.40;;
3953;SDS011;1991;48.682;9.030;2022-07-23T04:53:24;5.50;;;4.38;;
3953;SDS011;1991;48.682;9.030;2022-07-23T04:55:49;5.43;;;4.93;;
3953;SDS011;1991;48.682;9.030;2022-07-23T04:58:15;6.10;;;4.07;;
3953;SDS011;1991;48.682;9.030;2022-07-23T05:00:41;5.65;;;4.38;;
3953;SDS011;1991;48.682;9.030;2022-07-23T05:03:06;5.55;;;4.75;;
3953;SDS011;1991;48.682;9.030;2022-07-23T05:05:32;5.47;;;4.57;;
3953;SDS011;1991;48.682;9.030;2022-07-23T05:07:57;4.90;;;4.50;;
3953;SDS011;1991;48.682;9.030;2022-07-23T05:10:23;4.38;;;3.97;;
3953;SDS011;1991;48.682;9.030;2022-07-23T05:12:49;5.32;;;4.82;;
3953;SDS011;1991;48.682;9.030;2022-07-23T05:15:14;4.90;;;4.50;;
3953;SDS011;1991;48.682;9.030;2022-07-23T05:17:40;5.32;;;4.82;;
3953;SDS011;1991;48.682;9.030;2022-07-23T05:20:06;5.38;;;4.57;;
3953;SDS011;1991;48.682;9.030;2022-07-23T05:22:31;5.20;;;4.40;;
3953;SDS011;1991;48.682;9.030;2022-07-23T05:24:58;5.35;;;4.82;;
3953;SDS011;1991;48.682;9.030;2022-07-23T05:27:23;6.68;;;4.50;;
3953;SDS011;1991;48.682;9.030;2022-07-23T05:29:49;5.22;;;4.70;;
3953;SDS011;1991;48.682;9.030;2022-07-23T05:32:15;4.88;;;4.38;;
3953;SDS011;1991;48.682;9.030;2022-07-23T05:34:40;6.18;;;4.55;;
3953;SDS011;1991;48.682;9.030;2022-07-23T05:37:06;5.55;;;5.05;;
3953;SDS011;1991;48.682;9.030;2022-07-23T05:39:31;5.75;;;4.82;;
3953;SDS011;1991;48.682;9.030;2022-07-23T05:41:57;5.50;;;5.00;;
3953;SDS011;1991;48.682;9.030;2022-07-23T05:44:23;5.30;;;4.80;;
3953;SDS011;1991;48.682;9.030;2022-07-23T05:46:48;5.38;;;4.85;;
3953;SDS011;1991;48.682;9.030;2022-07-23T05:49:14;6.10;;;5.05;;
3953;SDS011;1991;48.682;9.030;2022-07-23T05:51:39;5.85;;;4.85;;
3953;SDS011;1991;48.682;9.030;2022-07-23T05:54:05;5.28;;;4.78;;
3953;SDS011;1991;48.682;9.030;2022-07-23T05:56:31;5.45;;;4.88;;
3953;SDS011;1991;48.682;9.030;2022-07-23T05:58:56;6.68;;;5.00;;
3953;SDS011;1991;48.682;9.030;2022-07-23T06:01:22;6.03;;;4.80;;
3953;SDS011;1991;48.682;9.030;2022-07-23T06:03:48;5.72;;;5.20;;
3953;SDS011;1991;48.682;9.030;2022-07-23T06:06:13;5.07;;;4.57;;
3953;SDS011;1991;48.682;9.030;2022-07-23T06:08:39;5.82;;;5.20;;
3953;SDS011;1991;48.682;9.030;2022-07-23T06:11:05;5.97;;;5.47;;
3953;SDS011;1991;48.682;9.030;2022-07-23T06:13:30;7.35;;;5.18;;
3953;SDS011;1991;48.682;9.030;2022-07-23T06:15:56;6.85;;;6.05;;
3953;SDS011;1991;48.682;9.030;2022-07-23T06:18:21;6.65;;;5.55;;
3953;SDS011;1991;48.682;9.030;2022-07-23T06:20:47;6.88;;;5.95;;
3953;SDS011;1991;48.682;9.030;2022-07-23T06:23:13;6.22;;;5.57;;
3953;SDS011;1991;48.682;9.030;2022-07-23T06:25:38;6.45;;;5.85;;
3953;SDS011;1991;48.682;9.030;2022-07-23T06:28:04;6.10;;;5.60;;
3953;SDS011;1991;48.682;9.030;2022-07-23T06:30:29;6.28;;;5.32;;
3953;SDS011;1991;48.682;9.030;2022-07-23T06:32:57;7.90;;;6.07;;
3953;SDS011;1991;48.682;9.030;2022-07-23T06:35:22;6.38;;;5.85;;
3953;SDS011;1991;48.682;9.030;2022-07-23T06:37:48;7.07;;;6.03;;
3953;SDS011;1991;48.682;9.030;2022-07-23T06:40:13;6.72;;;6.05;;
3953;SDS011;1991;48.682;9.030;2022-07-23T06:42:39;7.70;;;5.85;;
3953;SDS011;1991;48.682;9.030;2022-07-23T06:45:08;10.50;;;6.20;;
3953;SDS011;1991;48.682;9.030;2022-07-23T06:47:34;6.40;;;5.45;;
3953;SDS011;1991;48.682;9.030;2022-07-23T06:49:59;6.63;;;6.03;;
3953;SDS011;1991;48.682;9.030;2022-07-23T06:52:25;6.82;;;5.20;;
3953;SDS011;1991;48.682;9.030;2022-07-23T06:54:51;6.00;;;5.50;;
3953;SDS011;1991;48.682;9.030;2022-07-23T06:57:17;6.28;;;5.50;;
3953;SDS011;1991;48.682;9.030;2022-07-23T06:59:43;6.00;;;5.40;;
3953;SDS011;1991;48.682;9.030;2022-07-23T07:02:08;7.22;;;5.55;;
3953;SDS011;1991;48.682;9.030;2022-07-23T07:04:34;5.75;;;5.15;;
3953;SDS011;1991;48.682;9.030;2022-07-23T07:07:00;5.47;;;4.93;;
3953;SDS011;1991;48.682;9.030;2022-07-23T07:09:25;5.90;;;5.30;;
3953;SDS011;1991;48.682;9.030;2022-07-23T07:11:51;5.68;;;5.07;;
3953;SDS011;1991;48.682;9.030;2022-07-23T07:14:17;5.70;;;5.20;;
3953;SDS011;1991;48.682;9.030;2022-07-23T07:16:42;5.43;;;4.93;;
3953;SDS011;1991;48.682;9.030;2022-07-23T07:19:08;5.53;;;4.93;;
3953;SDS011;1991;48.682;9.030;2022-07-23T07:21:34;5.43;;;4.93;;
3953;SDS011;1991;48.682;9.030;2022-07-23T07:24:00;8.73;;;5.40;;
3953;SDS011;1991;48.682;9.030;2022-07-23T07:26:25;6.53;;;5.38;;
3953;SDS011;1991;48.682;9.030;2022-07-23T07:28:51;5.68;;;5.18;;
3953;SDS011;1991;48.682;9.030;2022-07-23T07:31:17;5.60;;;5.10;;
3953;SDS011;1991;48.682;9.030;2022-07-23T07:33:42;5.63;;;5.13;;
3953;SDS011;1991;48.682;9.030;2022-07-23T07:36:08;6.57;;;4.85;;
3953;SDS011;1991;48.682;9.030;2022-07-23T07:38:34;7.97;;;5.07;;
3953;SDS011;1991;48.682;9.030;2022-07-23T07:40:59;5.63;;;5.10;;
3953;SDS011;1991;48.682;9.030;2022-07-23T07:43:25;7.00;;;5.25;;
3953;SDS011;1991;48.682;9.030;2022-07-23T07:45:50;5.70;;;4.28;;
3953;SDS011;1991;48.682;9.030;2022-07-23T07:48:16;4.85;;;4.43;;
3953;SDS011;1991;48.682;9.030;2022-07-23T07:50:41;5.50;;;4.70;;
3953;SDS011;1991;48.682;9.030;2022-07-23T07:53:07;5.10;;;4.50;;
3953;SDS011;1991;48.682;9.030;2022-07-23T07:55:33;4.80;;;4.22;;
3953;SDS011;1991;48.682;9.030;2022-07-23T07:58:00;5.55;;;4.78;;
3953;SDS011;1991;48.682;9.030;2022-07-23T08:00:25;5.15;;;4.65;;
3953;SDS011;1991;48.682;9.030;2022-07-23T08:02:52;5.97;;;4.70;;
3953;SDS011;1991;48.682;9.030;2022-07-23T08:05:21;5.88;;;5.30;;
3953;SDS011;1991;48.682;9.030;2022-07-23T08:07:47;4.93;;;4.53;;
3953;SDS011;1991;48.682;9.030;2022-07-23T08:10:13;7.07;;;5.15;;
3953;SDS011;1991;48.682;9.030;2022-07-23T08:12:40;5.90;;;4.68;;
3953;SDS011;1991;48.682;9.030;2022-07-23T08:15:09;5.55;;;4.82;;
3953;SDS011;1991;48.682;9.030;2022-07-23T08:17:36;5.22;;;4.72;;
3953;SDS011;1991;48.682;9.030;2022-07-23T08:20:02;5.88;;;4.65;;
3953;SDS011;1991;48.682;9.030;2022-07-23T08:25:15;5.07;;;4.60;;
3953;SDS011;1991;48.682;9.030;2022-07-23T08:27:41;4.47;;;4.15;;
3953;SDS011;1991;48.682;9.030;2022-07-23T08:30:08;5.07;;;4.57;;
3953;SDS011;1991;48.682;9.030;2022-07-23T08:32:46;4.82;;;4.32;;
3953;SDS011;1991;48.682;9.030;2022-07-23T08:35:15;4.63;;;4.22;;
3953;SDS011;1991;48.682;9.030;2022-07-23T08:37:41;5.20;;;4.65;;
3953;SDS011;1991;48.682;9.030;2022-07-23T08:40:07;5.15;;;4.40;;
3953;SDS011;1991;48.682;9.030;2022-07-23T08:42:33;4.82;;;4.32;;
3953;SDS011;1991;48.682;9.030;2022-07-23T08:45:03;5.60;;;4.30;;
3953;SDS011;1991;48.682;9.030;2022-07-23T08:47:29;5.15;;;4.40;;
3953;SDS011;1991;48.682;9.030;2022-07-23T08:49:55;5.72;;;4.28;;
3953;SDS011;1991;48.682;9.030;2022-07-23T08:52:23;5.50;;;4.50;;
3953;SDS011;1991;48.682;9.030;2022-07-23T08:54:49;5.00;;;4.60;;
3953;SDS011;1991;48.682;9.030;2022-07-23T08:57:16;6.20;;;5.10;;
3953;SDS011;1991;48.682;9.030;2022-07-23T08:59:41;5.28;;;4.22;;
3953;SDS011;1991;48.682;9.030;2022-07-23T09:02:07;4.68;;;4.22;;
3953;SDS011;1991;48.682;9.030;2022-07-23T09:04:32;4.65;;;4.25;;
3953;SDS011;1991;48.682;9.030;2022-07-23T09:06:59;5.50;;;5.00;;
3953;SDS011;1991;48.682;9.030;2022-07-23T09:09:27;4.93;;;4.32;;
3953;SDS011;1991;48.682;9.030;2022-07-23T09:14:37;4.32;;;3.92;;
3953;SDS011;1991;48.682;9.030;2022-07-23T09:17:11;4.75;;;4.13;;
3953;SDS011;1991;48.682;9.030;2022-07-23T09:19:38;4.63;;;4.25;;
3953;SDS011;1991;48.682;9.030;2022-07-23T09:28:12;5.63;;;4.70;;
3953;SDS011;1991;48.682;9.030;2022-07-23T09:30:23;5.50;;;5.00;;
3953;SDS011;1991;48.682;9.030;2022-07-23T09:38:21;7.20;;;5.35;;
3953;SDS011;1991;48.682;9.030;2022-07-23T09:41:04;5.70;;;5.20;;
3953;SDS011;1991;48.682;9.030;2022-07-23T09:43:34;8.23;;;5.53;;
3953;SDS011;1991;48.682;9.030;2022-07-23T09:46:18;6.10;;;5.50;;
3953;SDS011;1991;48.682;9.030;2022-07-23T09:48:49;6.05;;;5.55;;
3953;SDS011;1991;48.682;9.030;2022-07-23T09:51:19;6.18;;;5.55;;
3953;SDS011;1991;48.682;9.030;2022-07-23T09:53:54;6.18;;;5.68;;
3953;SDS011;1991;48.682;9.030;2022-07-23T09:56:19;5.93;;;5.40;;
3953;SDS011;1991;48.682;9.030;2022-07-23T09:58:46;5.65;;;5.07;;
3953;SDS011;1991;48.682;9.030;2022-07-23T10:01:16;5.95;;;5.35;;
3953;SDS011;1991;48.682;9.030;2022-07-23T10:03:43;6.00;;;4.93;;
3953;SDS011;1991;48.682;9.030;2022-07-23T10:06:09;7.18;;;5.65;;
3953;SDS011;1991;48.682;9.030;2022-07-23T10:08:39;6.47;;;5.88;;
3953;SDS011;1991;48.682;9.030;2022-07-23T10:11:06;5.78;;;5.22;;
3953;SDS011;1991;48.682;9.030;2022-07-23T10:13:34;6.07;;;5.47;;
3953;SDS011;1991;48.682;9.030;2022-07-23T10:16:03;6.22;;;5.28;;
3953;SDS011;1991;48.682;9.030;2022-07-23T10:18:29;6.13;;;5.20;;
3953;SDS011;1991;48.682;9.030;2022-07-23T10:20:55;5.13;;;4.60;;
3953;SDS011;1991;48.682;9.030;2022-07-23T10:23:30;5.30;;;4.90;;
3953;SDS011;1991;48.682;9.030;2022-07-23T10:26:08;5.15;;;4.75;;
3953;SDS011;1991;48.682;9.030;2022-07-23T10:31:50;5.65;;;4.78;;
3953;SDS011;1991;48.682;9.030;2022-07-23T10:37:05;8.55;;;5.07;;
3953;SDS011;1991;48.682;9.030;2022-07-23T10:39:34;5.57;;;5.18;;
3953;SDS011;1991;48.682;9.030;2022-07-23T10:42:13;6.63;;;4.97;;
3953;SDS011;1991;48.682;9.030;2022-07-23T10:44:44;5.45;;;4.88;;
3953;SDS011;1991;48.682;9.030;2022-07-23T10:47:12;5.32;;;4.82;;
3953;SDS011;1991;48.682;9.030;2022-07-23T10:49:50;5.50;;;5.00;;
3953;SDS011;1991;48.682;9.030;2022-07-23T10:54:56;5.13;;;4.47;;
3953;SDS011;1991;48.682;9.030;2022-07-23T10:57:49;4.78;;;4.40;;
3953;SDS011;1991;48.682;9.030;2022-07-23T11:00:25;6.35;;;4.53;;
3953;SDS011;1991;48.682;9.030;2022-07-23T11:02:53;4.93;;;4.53;;
3953;SDS011;1991;48.682;9.030;2022-07-23T11:05:21;5.97;;;5.38;;
3953;SDS011;1991;48.682;9.030;2022-07-23T11:13:27;6.00;;;4.93;;
3953;SDS011;1991;48.682;9.030;2022-07-23T11:31:51;5.32;;;4.82;;
3953;SDS011;1991;48.682;9.030;2022-07-23T11:34:51;5.10;;;4.60;;
3953;SDS011;1991;48.682;9.030;2022-07-23T11:37:31;5.40;;;4.65;;
3953;SDS011;1991;48.682;9.030;2022-07-23T11:40:01;5.97;;;5.03;;
3953;SDS011;1991;48.682;9.030;2022-07-23T11:42:34;5.43;;;5.03;;
3953;SDS011;1991;48.682;9.030;2022-07-23T11:45:02;5.28;;;4.78;;
3953;SDS011;1991;48.682;9.030;2022-07-23T11:47:28;5.15;;;4.72;;
3953;SDS011;1991;48.682;9.030;2022-07-23T11:49:58;7.82;;;5.57;;
3953;SDS011;1991;48.682;9.030;2022-07-23T11:52:26;5.47;;;5.00;;
3953;SDS011;1991;48.682;9.030;2022-07-23T11:54:54;5.47;;;4.97;;
3953;SDS011;1991;48.682;9.030;2022-07-23T11:57:27;5.93;;;5.30;;
3953;SDS011;1991;48.682;9.030;2022-07-23T12:00:03;4.75;;;4.25;;
3953;SDS011;1991;48.682;9.030;2022-07-23T12:02:29;5.10;;;4.70;;
3953;SDS011;1991;48.682;9.030;2022-07-23T12:04:55;6.43;;;5.45;;
3953;SDS011;1991;48.682;9.030;2022-07-23T12:07:27;4.90;;;4.50;;
3953;SDS011;1991;48.682;9.030;2022-07-23T12:09:59;4.95;;;4.45;;
3953;SDS011;1991;48.682;9.030;2022-07-23T12:12:49;5.30;;;4.90;;
3953;SDS011;1991;48.682;9.030;2022-07-23T12:15:19;5.10;;;4.70;;
3953;SDS011;1991;48.682;9.030;2022-07-23T12:17:49;5.30;;;4.90;;
3953;SDS011;1991;48.682;9.030;2022-07-23T12:20:16;5.20;;;4.70;;
3953;SDS011;1991;48.682;9.030;2022-07-23T12:22:53;6.40;;;5.20;;
3953;SDS011;1991;48.682;9.030;2022-07-23T12:25:23;5.95;;;5.45;;
3953;SDS011;1991;48.682;9.030;2022-07-23T12:33:11;5.65;;;4.50;;
3953;SDS011;1991;48.682;9.030;2022-07-23T12:35:46;5.88;;;5.38;;
3953;SDS011;1991;48.682;9.030;2022-07-23T12:38:14;5.35;;;4.85;;
3953;SDS011;1991;48.682;9.030;2022-07-23T12:43:18;4.82;;;4.40;;
3953;SDS011;1991;48.682;9.030;2022-07-23T12:45:56;6.95;;;4.90;;
3953;SDS011;1991;48.682;9.030;2022-07-23T12:50:57;6.53;;;5.03;;
3953;SDS011;1991;48.682;9.030;2022-07-23T12:53:36;6.68;;;5.35;;
3953;SDS011;1991;48.682;9.030;2022-07-23T12:56:12;5.20;;;4.80;;
3953;SDS011;1991;48.682;9.030;2022-07-23T13:03:55;5.93;;;5.43;;
3953;SDS011;1991;48.682;9.030;2022-07-23T13:06:30;5.63;;;5.13;;
3953;SDS011;1991;48.682;9.030;2022-07-23T13:08:59;5.57;;;5.07;;
3953;SDS011;1991;48.682;9.030;2022-07-23T13:11:27;5.65;;;5.13;;
3953;SDS011;1991;48.682;9.030;2022-07-23T13:13:52;7.45;;;4.95;;
3953;SDS011;1991;48.682;9.030;2022-07-23T13:16:18;5.57;;;5.07;;
3953;SDS011;1991;48.682;9.030;2022-07-23T13:18:44;5.63;;;5.10;;
3953;SDS011;1991;48.682;9.030;2022-07-23T13:21:09;5.38;;;4.90;;
3953;SDS011;1991;48.682;9.030;2022-07-23T13:23:35;5.05;;;4.65;;
3953;SDS011;1991;48.682;9.030;2022-07-23T13:26:01;6.38;;;5.20;;
3953;SDS011;1991;48.682;9.030;2022-07-23T13:28:27;5.85;;;5.35;;
3953;SDS011;1991;48.682;9.030;2022-07-23T13:30:53;5.63;;;5.13;;
3953;SDS011;1991;48.682;9.030;2022-07-23T13:33:19;5.60;;;5.10;;
3953;SDS011;1991;48.682;9.030;2022-07-23T13:35:46;7.22;;;5.43;;
3953;SDS011;1991;48.682;9.030;2022-07-23T13:38:12;7.70;;;4.88;;
3953;SDS011;1991;48.682;9.030;2022-07-23T13:40:39;5.70;;;5.20;;
3953;SDS011;1991;48.682;9.030;2022-07-23T13:43:07;5.82;;;5.32;;
3953;SDS011;1991;48.682;9.030;2022-07-23T13:45:35;5.57;;;5.18;;
3953;SDS011;1991;48.682;9.030;2022-07-23T13:48:01;7.20;;;5.50;;
3953;SDS011;1991;48.682;9.030;2022-07-23T13:50:27;5.47;;;5.03;;
3953;SDS011;1991;48.682;9.030;2022-07-23T13:52:53;6.57;;;5.30;;
3953;SDS011;1991;48.682;9.030;2022-07-23T13:55:19;5.32;;;4.90;;
3953;SDS011;1991;48.682;9.030;2022-07-23T13:57:45;6.80;;;5.50;;
3953;SDS011;1991;48.682;9.030;2022-07-23T14:00:11;6.40;;;5.70;;
3953;SDS011;1991;48.682;9.030;2022-07-23T14:02:38;7.35;;;6.18;;
3953;SDS011;1991;48.682;9.030;2022-07-23T14:05:05;6.30;;;5.30;;
3953;SDS011;1991;48.682;9.030;2022-07-23T14:07:33;5.65;;;5.25;;
3953;SDS011;1991;48.682;9.030;2022-07-23T14:10:00;5.88;;;5.38;;
3953;SDS011;1991;48.682;9.030;2022-07-23T14:12:26;5.85;;;5.40;;
3953;SDS011;1991;48.682;9.030;2022-07-23T14:14:52;6.05;;;5.45;;
3953;SDS011;1991;48.682;9.030;2022-07-23T14:17:17;7.10;;;6.00;;
3953;SDS011;1991;48.682;9.030;2022-07-23T14:19:43;6.18;;;5.63;;
3953;SDS011;1991;48.682;9.030;2022-07-23T14:22:09;13.68;;;5.75;;
3953;SDS011;1991;48.682;9.030;2022-07-23T14:24:35;6.97;;;5.40;;
3953;SDS011;1991;48.682;9.030;2022-07-23T14:27:01;6.07;;;5.57;;
3953;SDS011;1991;48.682;9.030;2022-07-23T14:29:28;6.80;;;5.93;;
3953;SDS011;1991;48.682;9.030;2022-07-23T14:31:54;5.90;;;5.40;;
3953;SDS011;1991;48.682;9.030;2022-07-23T14:35:24;5.90;;;5.30;;
3953;SDS011;1991;48.682;9.030;2022-07-23T14:37:50;5.82;;;5.32;;
3953;SDS011;1991;48.682;9.030;2022-07-23T14:40:16;8.40;;;5.63;;
3953;SDS011;1991;48.682;9.030;2022-07-23T14:42:41;6.10;;;5.50;;
3953;SDS011;1991;48.682;9.030;2022-07-23T14:45:07;5.88;;;5.40;;
3953;SDS011;1991;48.682;9.030;2022-07-23T14:47:33;6.78;;;5.43;;
3953;SDS011;1991;48.682;9.030;2022-07-23T14:49:58;6.97;;;6.28;;
3953;SDS011;1991;48.682;9.030;2022-07-23T14:52:24;7.85;;;5.63;;
3953;SDS011;1991;48.682;9.030;2022-07-23T14:54:49;6.15;;;5.60;;
3953;SDS011;1991;48.682;9.030;2022-07-23T14:57:15;5.95;;;5.40;;
3953;SDS011;1991;48.682;9.030;2022-07-23T14:59:40;6.50;;;5.43;;
3953;SDS011;1991;48.682;9.030;2022-07-23T15:02:07;6.20;;;5.60;;
3953;SDS011;1991;48.682;9.030;2022-07-23T15:04:33;7.22;;;5.82;;
3953;SDS011;1991;48.682;9.030;2022-07-23T15:06:59;6.05;;;5.43;;
3953;SDS011;1991;48.682;9.030;2022-07-23T15:09:24;6.22;;;5.72;;
3953;SDS011;1991;48.682;9.030;2022-07-23T15:11:50;6.32;;;5.63;;
3953;SDS011;1991;48.682;9.030;2022-07-23T15:14:16;6.35;;;5.75;;
3953;SDS011;1991;48.682;9.030;2022-07-23T15:16:41;7.78;;;5.88;;
3953;SDS011;1991;48.682;9.030;2022-07-23T15:19:07;6.72;;;6.00;;
3953;SDS011;1991;48.682;9.030;2022-07-23T15:21:32;6.32;;;5.55;;
3953;SDS011;1991;48.682;9.030;2022-07-23T15:23:58;7.03;;;5.78;;
3953;SDS011;1991;48.682;9.030;2022-07-23T15:26:25;6.88;;;6.18;;
3953;SDS011;1991;48.682;9.030;2022-07-23T15:28:54;7.43;;;5.95;;
3953;SDS011;1991;48.682;9.030;2022-07-23T15:31:19;6.10;;;5.50;;
3953;SDS011;1991;48.682;9.030;2022-07-23T15:33:45;8.65;;;6.07;;
3953;SDS011;1991;48.682;9.030;2022-07-23T15:36:11;6.18;;;5.63;;
3953;SDS011;1991;48.682;9.030;2022-07-23T15:38:37;7.07;;;6.07;;
3953;SDS011;1991;48.682;9.030;2022-07-23T15:41:03;5.97;;;5.45;;
3953;SDS011;1991;48.682;9.030;2022-07-23T15:43:28;6.05;;;5.53;;
3953;SDS011;1991;48.682;9.030;2022-07-23T15:45:54;6.00;;;5.50;;
3953;SDS011;1991;48.682;9.030;2022-07-23T15:48:20;6.80;;;6.10;;
3953;SDS011;1991;48.682;9.030;2022-07-23T15:50:46;6.00;;;5.43;;
3953;SDS011;1991;48.682;9.030;2022-07-23T15:53:12;6.20;;;5.60;;
3953;SDS011;1991;48.682;9.030;2022-07-23T15:55:38;6.00;;;5.45;;
3953;SDS011;1991;48.682;9.030;2022-07-23T15:58:05;5.88;;;5.30;;
3953;SDS011;1991;48.682;9.030;2022-07-23T16:00:31;6.97;;;6.30;;
3953;SDS011;1991;48.682;9.030;2022-07-23T16:02:57;6.45;;;5.68;;
3953;SDS011;1991;48.682;9.030;2022-07-23T16:05:23;7.20;;;5.50;;
3953;SDS011;1991;48.682;9.030;2022-07-23T16:07:49;7.63;;;5.78;;
3953;SDS011;1991;48.682;9.030;2022-07-23T16:10:14;6.40;;;5.57;;
3953;SDS011;1991;48.682;9.030;2022-07-23T16:12:40;6.00;;;5.50;;
3953;SDS011;1991;48.682;9.030;2022-07-23T16:15:06;5.97;;;5.38;;
3953;SDS011;1991;48.682;9.030;2022-07-23T16:17:31;6.50;;;5.90;;